sensor_id;sensor_type;location;lat;lon;timestamp;P1;durP1;ratioP1;P2;durP2;ratioP2
70138;SDS011;57507;43.056;0.150;2022-07-21T00:02:11;3.85;;;2.45;;
70138;SDS011;57507;43.056;0.150;2022-07-21T00:04:37;6.47;;;3.03;;
70138;SDS011;57507;43.056;0.150;2022-07-21T00:07:03;3.80;;;2.83;;
70138;SDS011;57507;43.056;0.150;2022-07-21T00:09:29;5.88;;;2.75;;
70138;SDS011;57507;43.056;0.150;2022-07-21T00:11:55;6.28;;;3.28;;
70138;SDS011;57507;43.056;0.150;2022-07-21T00:14:21;4.55;;;3.17;;
70138;SDS011;57507;43.056;0.150;2022-07-21T00:16:47;4.22;;;2.50;;
70138;SDS011;57507;43.056;0.150;2022-07-21T00:19:13;4.35;;;2.50;;
70138;SDS011;57507;43.056;0.150;2022-07-21T00:21:39;3.45;;;2.92;;
70138;SDS011;57507;43.056;0.150;2022-07-21T00:24:06;5.13;;;2.75;;
70138;SDS011;57507;43.056;0.150;2022-07-21T00:26:32;4.43;;;2.50;;
70138;SDS011;57507;43.056;0.150;2022-07-21T00:28:58;5.03;;;2.90;;
70138;SDS011;57507;43.056;0.150;2022-07-21T00:31:24;4.07;;;2.70;;
70138;SDS011;57507;43.056;0.150;2022-07-21T00:33:50;4.07;;;2.50;;
70138;SDS011;57507;43.056;0.150;2022-07-21T00:36:17;4.63;;;2.75;;
70138;SDS011;57507;43.056;0.150;2022-07-21T00:38:43;4.45;;;2.72;;
70138;SDS011;57507;43.056;0.150;2022-07-21T00:41:09;6.00;;;2.90;;
70138;SDS011;57507;43.056;0.150;2022-07-21T00:43:35;4.35;;;2.92;;
70138;SDS011;57507;43.056;0.150;2022-07-21T00:46:01;5.07;;;2.88;;
70138;SDS011;57507;43.056;0.150;2022-07-21T00:48:27;3.28;;;2.80;;
70138;SDS011;57507;43.056;0.150;2022-07-21T00:50:53;4.63;;;2.85;;
70138;SDS011;57507;43.056;0.150;2022-07-21T00:53:19;4.50;;;2.47;;
70138;SDS011;57507;43.056;0.150;2022-07-21T00:55:45;4.43;;;2.85;;
70138;SDS011;57507;43.056;0.150;2022-07-21T00:58:11;7.78;;;3.05;;
70138;SDS011;57507;43.056;0.150;2022-07-21T01:00:37;4.07;;;2.88;;
70138;SDS011;57507;43.056;0.150;2022-07-21T01:03:04;4.80;;;3.05;;
70138;SDS011;57507;43.056;0.150;2022-07-21T01:05:30;5.10;;;2.75;;
70138;SDS011;57507;43.056;0.150;2022-07-21T01:07:56;5.78;;;2.85;;
70138;SDS011;57507;43.056;0.150;2022-07-21T01:10:27;5.18;;;2.97;;
70138;SDS011;57507;43.056;0.150;2022-07-21T01:12:53;5.50;;;2.83;;
70138;SDS011;57507;43.056;0.150;2022-07-21T01:15:20;3.22;;;2.50;;
70138;SDS011;57507;43.056;0.150;2022-07-21T01:17:46;3.83;;;2.50;;
70138;SDS011;57507;43.056;0.150;2022-07-21T01:20:14;4.68;;;3.10;;
70138;SDS011;57507;43.056;0.150;2022-07-21T01:22:41;4.10;;;2.72;;
70138;SDS011;57507;43.056;0.150;2022-07-21T01:25:07;3.35;;;2.35;;
70138;SDS011;57507;43.056;0.150;2022-07-21T01:27:34;4.93;;;2.63;;
70138;SDS011;57507;43.056;0.150;2022-07-21T01:30:00;2.90;;;2.60;;
70138;SDS011;57507;43.056;0.150;2022-07-21T01:32:26;3.50;;;2.80;;
70138;SDS011;57507;43.056;0.150;2022-07-21T01:34:52;5.82;;;2.65;;
70138;SDS011;57507;43.056;0.150;2022-07-21T01:37:21;4.43;;;2.60;;
70138;SDS011;57507;43.056;0.150;2022-07-21T01:39:51;3.03;;;2.50;;
70138;SDS011;57507;43.056;0.150;2022-07-21T01:42:36;3.95;;;2.58;;
70138;SDS011;57507;43.056;0.150;2022-07-21T01:45:03;4.20;;;2.45;;
70138;SDS011;57507;43.056;0.150;2022-07-21T01:47:29;3.95;;;2.55;;
70138;SDS011;57507;43.056;0.150;2022-07-21T01:49:55;3.92;;;2.55;;
70138;SDS011;57507;43.056;0.150;2022-07-21T01:52:21;5.25;;;2.38;;
70138;SDS011;57507;43.056;0.150;2022-07-21T01:54:48;5.35;;;2.80;;
70138;SDS011;57507;43.056;0.150;2022-07-21T01:57:14;4.85;;;2.42;;
70138;SDS011;57507;43.056;0.150;2022-07-21T01:59:40;2.92;;;2.47;;
70138;SDS011;57507;43.056;0.150;2022-07-21T02:02:06;4.72;;;2.78;;
70138;SDS011;57507;43.056;0.150;2022-07-21T02:04:32;4.25;;;2.20;;
70138;SDS011;57507;43.056;0.150;2022-07-21T02:06:59;5.45;;;2.90;;
70138;SDS011;57507;43.056;0.150;2022-07-21T02:09:26;5.18;;;2.50;;
70138;SDS011;57507;43.056;0.150;2022-07-21T02:11:52;5.05;;;2.38;;
70138;SDS011;57507;43.056;0.150;2022-07-21T02:14:18;5.85;;;2.67;;
70138;SDS011;57507;43.056;0.150;2022-07-21T02:16:44;3.60;;;2.45;;
70138;SDS011;57507;43.056;0.150;2022-07-21T02:19:10;4.38;;;2.70;;
70138;SDS011;57507;43.056;0.150;2022-07-21T02:21:36;3.30;;;2.33;;
70138;SDS011;57507;43.056;0.150;2022-07-21T02:24:02;4.95;;;2.88;;
70138;SDS011;57507;43.056;0.150;2022-07-21T02:26:28;4.65;;;2.85;;
70138;SDS011;57507;43.056;0.150;2022-07-21T02:28:54;5.70;;;2.80;;
70138;SDS011;57507;43.056;0.150;2022-07-21T02:31:20;5.13;;;2.55;;
70138;SDS011;57507;43.056;0.150;2022-07-21T02:33:46;2.97;;;2.13;;
70138;SDS011;57507;43.056;0.150;2022-07-21T02:36:12;4.68;;;2.53;;
70138;SDS011;57507;43.056;0.150;2022-07-21T02:38:38;3.67;;;2.45;;
70138;SDS011;57507;43.056;0.150;2022-07-21T02:41:04;5.38;;;2.67;;
70138;SDS011;57507;43.056;0.150;2022-07-21T02:43:30;4.18;;;2.30;;
70138;SDS011;57507;43.056;0.150;2022-07-21T02:45:56;3.78;;;2.20;;
70138;SDS011;57507;43.056;0.150;2022-07-21T02:48:22;5.15;;;2.50;;
70138;SDS011;57507;43.056;0.150;2022-07-21T02:50:48;4.25;;;2.70;;
70138;SDS011;57507;43.056;0.150;2022-07-21T02:53:15;3.35;;;2.15;;
70138;SDS011;57507;43.056;0.150;2022-07-21T02:55:48;6.70;;;3.35;;
70138;SDS011;57507;43.056;0.150;2022-07-21T03:03:15;5.68;;;2.42;;
70138;SDS011;57507;43.056;0.150;2022-07-21T03:05:41;6.07;;;2.80;;
70138;SDS011;57507;43.056;0.150;2022-07-21T03:08:08;4.55;;;2.47;;
70138;SDS011;57507;43.056;0.150;2022-07-21T03:10:35;4.32;;;2.50;;
70138;SDS011;57507;43.056;0.150;2022-07-21T03:13:02;6.68;;;2.75;;
70138;SDS011;57507;43.056;0.150;2022-07-21T03:15:28;6.00;;;2.72;;
70138;SDS011;57507;43.056;0.150;2022-07-21T03:17:54;4.20;;;2.55;;
70138;SDS011;57507;43.056;0.150;2022-07-21T03:20:27;5.22;;;2.63;;
70138;SDS011;57507;43.056;0.150;2022-07-21T03:22:53;5.72;;;2.80;;
70138;SDS011;57507;43.056;0.150;2022-07-21T03:25:20;5.05;;;2.63;;
70138;SDS011;57507;43.056;0.150;2022-07-21T03:27:46;5.15;;;2.63;;
70138;SDS011;57507;43.056;0.150;2022-07-21T03:30:13;4.95;;;2.17;;
70138;SDS011;57507;43.056;0.150;2022-07-21T03:32:39;4.93;;;2.90;;
70138;SDS011;57507;43.056;0.150;2022-07-21T03:35:06;6.25;;;3.20;;
70138;SDS011;57507;43.056;0.150;2022-07-21T03:37:32;3.15;;;2.60;;
70138;SDS011;57507;43.056;0.150;2022-07-21T03:40:05;3.75;;;2.33;;
70138;SDS011;57507;43.056;0.150;2022-07-21T03:42:31;5.15;;;2.70;;
70138;SDS011;57507;43.056;0.150;2022-07-21T03:44:57;4.20;;;2.35;;
70138;SDS011;57507;43.056;0.150;2022-07-21T03:47:23;4.13;;;2.60;;
70138;SDS011;57507;43.056;0.150;2022-07-21T03:49:49;5.82;;;2.75;;
70138;SDS011;57507;43.056;0.150;2022-07-21T03:52:15;5.20;;;2.45;;
70138;SDS011;57507;43.056;0.150;2022-07-21T03:54:41;4.40;;;2.67;;
70138;SDS011;57507;43.056;0.150;2022-07-21T03:57:07;3.75;;;2.55;;
70138;SDS011;57507;43.056;0.150;2022-07-21T03:59:34;6.32;;;2.97;;
70138;SDS011;57507;43.056;0.150;2022-07-21T04:02:00;3.80;;;2.50;;
70138;SDS011;57507;43.056;0.150;2022-07-21T04:04:26;5.47;;;2.53;;
70138;SDS011;57507;43.056;0.150;2022-07-21T04:06:52;3.85;;;2.55;;
70138;SDS011;57507;43.056;0.150;2022-07-21T04:09:18;4.32;;;2.90;;
70138;SDS011;57507;43.056;0.150;2022-07-21T04:11:44;5.75;;;3.08;;
70138;SDS011;57507;43.056;0.150;2022-07-21T04:14:10;5.25;;;2.58;;
70138;SDS011;57507;43.056;0.150;2022-07-21T04:16:36;5.50;;;2.63;;
70138;SDS011;57507;43.056;0.150;2022-07-21T04:19:02;4.80;;;2.75;;
70138;SDS011;57507;43.056;0.150;2022-07-21T04:21:28;3.33;;;2.40;;
70138;SDS011;57507;43.056;0.150;2022-07-21T04:23:54;3.67;;;2.35;;
70138;SDS011;57507;43.056;0.150;2022-07-21T04:26:20;4.22;;;3.00;;
70138;SDS011;57507;43.056;0.150;2022-07-21T04:28:46;5.25;;;2.83;;
70138;SDS011;57507;43.056;0.150;2022-07-21T04:31:12;5.13;;;2.72;;
70138;SDS011;57507;43.056;0.150;2022-07-21T04:33:38;5.65;;;2.97;;
70138;SDS011;57507;43.056;0.150;2022-07-21T04:36:04;6.13;;;3.05;;
70138;SDS011;57507;43.056;0.150;2022-07-21T04:38:31;4.65;;;2.58;;
70138;SDS011;57507;43.056;0.150;2022-07-21T04:40:57;5.30;;;2.75;;
70138;SDS011;57507;43.056;0.150;2022-07-21T04:43:23;5.32;;;2.80;;
70138;SDS011;57507;43.056;0.150;2022-07-21T04:45:49;7.20;;;3.05;;
70138;SDS011;57507;43.056;0.150;2022-07-21T04:48:15;6.57;;;2.80;;
70138;SDS011;57507;43.056;0.150;2022-07-21T04:50:41;7.63;;;3.08;;
70138;SDS011;57507;43.056;0.150;2022-07-21T04:53:07;3.78;;;2.53;;
70138;SDS011;57507;43.056;0.150;2022-07-21T04:55:34;5.43;;;3.30;;
70138;SDS011;57507;43.056;0.150;2022-07-21T04:58:00;4.07;;;2.95;;
70138;SDS011;57507;43.056;0.150;2022-07-21T05:00:26;5.63;;;2.80;;
70138;SDS011;57507;43.056;0.150;2022-07-21T05:02:54;3.83;;;3.10;;
70138;SDS011;57507;43.056;0.150;2022-07-21T05:05:20;3.58;;;2.67;;
70138;SDS011;57507;43.056;0.150;2022-07-21T05:07:46;5.22;;;3.33;;
70138;SDS011;57507;43.056;0.150;2022-07-21T05:10:13;4.03;;;2.70;;
70138;SDS011;57507;43.056;0.150;2022-07-21T05:12:39;5.55;;;2.92;;
70138;SDS011;57507;43.056;0.150;2022-07-21T05:15:06;4.72;;;2.60;;
70138;SDS011;57507;43.056;0.150;2022-07-21T05:17:32;3.95;;;2.70;;
70138;SDS011;57507;43.056;0.150;2022-07-21T05:19:59;5.55;;;2.85;;
70138;SDS011;57507;43.056;0.150;2022-07-21T05:22:25;4.65;;;2.88;;
70138;SDS011;57507;43.056;0.150;2022-07-21T05:24:51;5.30;;;3.05;;
70138;SDS011;57507;43.056;0.150;2022-07-21T05:27:17;6.10;;;3.00;;
70138;SDS011;57507;43.056;0.150;2022-07-21T05:29:43;5.20;;;2.97;;
70138;SDS011;57507;43.056;0.150;2022-07-21T05:32:09;4.60;;;2.63;;
70138;SDS011;57507;43.056;0.150;2022-07-21T05:34:35;5.35;;;2.55;;
70138;SDS011;57507;43.056;0.150;2022-07-21T05:37:01;3.72;;;2.63;;
70138;SDS011;57507;43.056;0.150;2022-07-21T05:39:28;5.45;;;2.88;;
70138;SDS011;57507;43.056;0.150;2022-07-21T05:41:54;6.85;;;3.25;;
70138;SDS011;57507;43.056;0.150;2022-07-21T05:44:20;5.00;;;2.72;;
70138;SDS011;57507;43.056;0.150;2022-07-21T05:46:46;4.22;;;2.80;;
70138;SDS011;57507;43.056;0.150;2022-07-21T05:49:12;6.07;;;2.88;;
70138;SDS011;57507;43.056;0.150;2022-07-21T05:51:38;4.47;;;2.85;;
70138;SDS011;57507;43.056;0.150;2022-07-21T05:54:04;7.78;;;3.58;;
70138;SDS011;57507;43.056;0.150;2022-07-21T05:56:30;7.05;;;2.85;;
70138;SDS011;57507;43.056;0.150;2022-07-21T05:58:56;4.72;;;3.25;;
70138;SDS011;57507;43.056;0.150;2022-07-21T06:01:22;5.07;;;3.25;;
70138;SDS011;57507;43.056;0.150;2022-07-21T06:03:49;3.80;;;3.22;;
70138;SDS011;57507;43.056;0.150;2022-07-21T06:06:16;5.68;;;3.40;;
70138;SDS011;57507;43.056;0.150;2022-07-21T06:08:43;5.30;;;3.35;;
70138;SDS011;57507;43.056;0.150;2022-07-21T06:11:10;5.03;;;3.55;;
70138;SDS011;57507;43.056;0.150;2022-07-21T06:13:36;4.22;;;2.85;;
70138;SDS011;57507;43.056;0.150;2022-07-21T06:16:03;4.63;;;2.65;;
70138;SDS011;57507;43.056;0.150;2022-07-21T06:18:29;6.13;;;3.78;;
70138;SDS011;57507;43.056;0.150;2022-07-21T06:20:55;5.35;;;3.70;;
70138;SDS011;57507;43.056;0.150;2022-07-21T06:23:21;3.67;;;3.22;;
70138;SDS011;57507;43.056;0.150;2022-07-21T06:25:47;5.57;;;3.80;;
70138;SDS011;57507;43.056;0.150;2022-07-21T06:28:14;6.28;;;3.45;;
70138;SDS011;57507;43.056;0.150;2022-07-21T06:30:40;7.18;;;4.00;;
70138;SDS011;57507;43.056;0.150;2022-07-21T06:33:06;7.75;;;3.55;;
70138;SDS011;57507;43.056;0.150;2022-07-21T06:35:32;5.60;;;3.13;;
70138;SDS011;57507;43.056;0.150;2022-07-21T06:37:58;5.22;;;3.83;;
70138;SDS011;57507;43.056;0.150;2022-07-21T06:40:24;5.47;;;4.18;;
70138;SDS011;57507;43.056;0.150;2022-07-21T06:42:50;6.95;;;3.40;;
70138;SDS011;57507;43.056;0.150;2022-07-21T06:45:16;6.82;;;4.10;;
70138;SDS011;57507;43.056;0.150;2022-07-21T06:47:43;5.68;;;3.67;;
70138;SDS011;57507;43.056;0.150;2022-07-21T06:50:09;4.55;;;3.75;;
70138;SDS011;57507;43.056;0.150;2022-07-21T06:52:35;4.75;;;4.00;;
70138;SDS011;57507;43.056;0.150;2022-07-21T06:55:02;6.03;;;3.78;;
70138;SDS011;57507;43.056;0.150;2022-07-21T06:57:28;5.85;;;3.83;;
70138;SDS011;57507;43.056;0.150;2022-07-21T06:59:54;6.05;;;3.95;;
70138;SDS011;57507;43.056;0.150;2022-07-21T07:02:20;8.48;;;4.15;;
70138;SDS011;57507;43.056;0.150;2022-07-21T07:04:46;4.95;;;3.65;;
70138;SDS011;57507;43.056;0.150;2022-07-21T07:07:12;6.60;;;3.70;;
70138;SDS011;57507;43.056;0.150;2022-07-21T07:09:38;5.80;;;3.72;;
70138;SDS011;57507;43.056;0.150;2022-07-21T07:12:06;4.80;;;3.83;;
70138;SDS011;57507;43.056;0.150;2022-07-21T07:14:34;7.70;;;4.57;;
70138;SDS011;57507;43.056;0.150;2022-07-21T07:17:00;5.85;;;4.45;;
70138;SDS011;57507;43.056;0.150;2022-07-21T07:19:27;4.85;;;3.83;;
70138;SDS011;57507;43.056;0.150;2022-07-21T07:21:53;5.82;;;4.13;;
70138;SDS011;57507;43.056;0.150;2022-07-21T07:24:19;4.72;;;3.45;;
70138;SDS011;57507;43.056;0.150;2022-07-21T07:26:45;6.22;;;4.53;;
70138;SDS011;57507;43.056;0.150;2022-07-21T07:29:11;5.50;;;4.10;;
70138;SDS011;57507;43.056;0.150;2022-07-21T07:31:37;5.82;;;4.28;;
70138;SDS011;57507;43.056;0.150;2022-07-21T07:34:04;7.60;;;4.70;;
70138;SDS011;57507;43.056;0.150;2022-07-21T07:36:30;7.40;;;4.38;;
70138;SDS011;57507;43.056;0.150;2022-07-21T07:38:56;8.20;;;4.35;;
70138;SDS011;57507;43.056;0.150;2022-07-21T07:41:23;6.35;;;4.40;;
70138;SDS011;57507;43.056;0.150;2022-07-21T07:43:50;6.55;;;4.35;;
70138;SDS011;57507;43.056;0.150;2022-07-21T07:46:16;6.60;;;4.22;;
70138;SDS011;57507;43.056;0.150;2022-07-21T07:48:42;5.63;;;4.68;;
70138;SDS011;57507;43.056;0.150;2022-07-21T07:51:09;6.93;;;3.80;;
70138;SDS011;57507;43.056;0.150;2022-07-21T07:53:35;5.05;;;4.05;;
70138;SDS011;57507;43.056;0.150;2022-07-21T07:56:01;6.85;;;3.95;;
70138;SDS011;57507;43.056;0.150;2022-07-21T07:58:28;5.32;;;4.35;;
70138;SDS011;57507;43.056;0.150;2022-07-21T08:00:54;5.43;;;3.63;;
70138;SDS011;57507;43.056;0.150;2022-07-21T08:03:20;5.75;;;3.97;;
70138;SDS011;57507;43.056;0.150;2022-07-21T08:05:47;5.65;;;3.92;;
70138;SDS011;57507;43.056;0.150;2022-07-21T08:08:13;6.97;;;4.20;;
70138;SDS011;57507;43.056;0.150;2022-07-21T08:10:39;7.18;;;4.28;;
70138;SDS011;57507;43.056;0.150;2022-07-21T08:13:05;5.63;;;3.90;;
70138;SDS011;57507;43.056;0.150;2022-07-21T08:15:33;5.22;;;3.75;;
70138;SDS011;57507;43.056;0.150;2022-07-21T08:17:59;5.15;;;3.83;;
70138;SDS011;57507;43.056;0.150;2022-07-21T08:20:25;4.20;;;3.22;;
70138;SDS011;57507;43.056;0.150;2022-07-21T08:22:51;5.68;;;3.72;;
70138;SDS011;57507;43.056;0.150;2022-07-21T08:25:17;5.07;;;3.95;;
70138;SDS011;57507;43.056;0.150;2022-07-21T08:27:43;5.85;;;4.00;;
70138;SDS011;57507;43.056;0.150;2022-07-21T08:30:10;6.57;;;3.72;;
70138;SDS011;57507;43.056;0.150;2022-07-21T08:32:36;5.63;;;3.58;;
70138;SDS011;57507;43.056;0.150;2022-07-21T08:35:02;5.68;;;4.13;;
70138;SDS011;57507;43.056;0.150;2022-07-21T08:37:33;6.72;;;3.65;;
70138;SDS011;57507;43.056;0.150;2022-07-21T08:39:59;5.85;;;3.45;;
70138;SDS011;57507;43.056;0.150;2022-07-21T08:42:26;4.57;;;3.67;;
70138;SDS011;57507;43.056;0.150;2022-07-21T08:44:52;5.50;;;3.60;;
70138;SDS011;57507;43.056;0.150;2022-07-21T08:47:18;5.50;;;3.78;;
70138;SDS011;57507;43.056;0.150;2022-07-21T08:49:45;5.95;;;3.80;;
70138;SDS011;57507;43.056;0.150;2022-07-21T08:52:12;5.63;;;3.67;;
70138;SDS011;57507;43.056;0.150;2022-07-21T08:54:38;6.28;;;3.67;;
70138;SDS011;57507;43.056;0.150;2022-07-21T08:57:04;4.90;;;3.40;;
70138;SDS011;57507;43.056;0.150;2022-07-21T08:59:30;6.13;;;4.00;;
70138;SDS011;57507;43.056;0.150;2022-07-21T09:01:56;5.50;;;3.72;;
70138;SDS011;57507;43.056;0.150;2022-07-21T09:04:33;4.47;;;3.40;;
70138;SDS011;57507;43.056;0.150;2022-07-21T09:07:03;4.82;;;4.00;;
70138;SDS011;57507;43.056;0.150;2022-07-21T09:09:30;4.80;;;3.30;;
70138;SDS011;57507;43.056;0.150;2022-07-21T09:11:56;7.10;;;3.90;;
70138;SDS011;57507;43.056;0.150;2022-07-21T09:14:24;3.70;;;3.40;;
70138;SDS011;57507;43.056;0.150;2022-07-21T09:16:52;4.95;;;3.65;;
70138;SDS011;57507;43.056;0.150;2022-07-21T09:19:26;4.70;;;4.00;;
70138;SDS011;57507;43.056;0.150;2022-07-21T09:21:53;5.03;;;3.53;;
70138;SDS011;57507;43.056;0.150;2022-07-21T09:24:24;5.50;;;3.45;;
70138;SDS011;57507;43.056;0.150;2022-07-21T09:27:11;4.25;;;3.45;;
70138;SDS011;57507;43.056;0.150;2022-07-21T09:35:04;5.18;;;3.65;;
70138;SDS011;57507;43.056;0.150;2022-07-21T09:37:30;5.18;;;3.38;;
70138;SDS011;57507;43.056;0.150;2022-07-21T09:39:57;5.40;;;3.60;;
70138;SDS011;57507;43.056;0.150;2022-07-21T09:42:28;4.18;;;3.72;;
70138;SDS011;57507;43.056;0.150;2022-07-21T09:47:25;3.95;;;3.35;;
70138;SDS011;57507;43.056;0.150;2022-07-21T09:49:51;5.45;;;3.65;;
70138;SDS011;57507;43.056;0.150;2022-07-21T09:52:18;5.35;;;3.47;;
70138;SDS011;57507;43.056;0.150;2022-07-21T09:54:45;7.00;;;3.65;;
70138;SDS011;57507;43.056;0.150;2022-07-21T09:57:11;6.43;;;3.35;;
70138;SDS011;57507;43.056;0.150;2022-07-21T09:59:38;4.93;;;3.40;;
70138;SDS011;57507;43.056;0.150;2022-07-21T10:02:05;4.32;;;3.40;;
70138;SDS011;57507;43.056;0.150;2022-07-21T10:04:31;4.68;;;3.22;;
70138;SDS011;57507;43.056;0.150;2022-07-21T10:06:59;4.05;;;3.40;;
70138;SDS011;57507;43.056;0.150;2022-07-21T10:09:27;4.65;;;3.55;;
70138;SDS011;57507;43.056;0.150;2022-07-21T10:11:53;6.13;;;3.65;;
70138;SDS011;57507;43.056;0.150;2022-07-21T10:14:19;4.60;;;3.75;;
70138;SDS011;57507;43.056;0.150;2022-07-21T10:16:45;5.28;;;3.53;;
70138;SDS011;57507;43.056;0.150;2022-07-21T10:19:16;5.10;;;3.08;;
70138;SDS011;57507;43.056;0.150;2022-07-21T10:22:30;5.20;;;3.30;;
70138;SDS011;57507;43.056;0.150;2022-07-21T10:24:31;4.28;;;3.05;;
70138;SDS011;57507;43.056;0.150;2022-07-21T10:32:11;4.47;;;3.30;;
70138;SDS011;57507;43.056;0.150;2022-07-21T10:34:37;3.95;;;2.97;;
70138;SDS011;57507;43.056;0.150;2022-07-21T10:37:03;4.95;;;3.70;;
70138;SDS011;57507;43.056;0.150;2022-07-21T10:39:30;4.95;;;3.30;;
70138;SDS011;57507;43.056;0.150;2022-07-21T10:41:58;4.70;;;3.33;;
70138;SDS011;57507;43.056;0.150;2022-07-21T10:47:08;5.22;;;3.00;;
70138;SDS011;57507;43.056;0.150;2022-07-21T10:49:45;4.22;;;2.97;;
70138;SDS011;57507;43.056;0.150;2022-07-21T10:55:15;4.88;;;3.45;;
70138;SDS011;57507;43.056;0.150;2022-07-21T11:03:29;4.22;;;3.40;;
70138;SDS011;57507;43.056;0.150;2022-07-21T11:06:16;4.85;;;3.50;;
70138;SDS011;57507;43.056;0.150;2022-07-21T11:19:33;5.85;;;3.05;;
70138;SDS011;57507;43.056;0.150;2022-07-21T11:22:06;7.70;;;3.40;;
70138;SDS011;57507;43.056;0.150;2022-07-21T11:24:32;5.25;;;3.22;;
70138;SDS011;57507;43.056;0.150;2022-07-21T11:27:00;4.60;;;3.30;;
70138;SDS011;57507;43.056;0.150;2022-07-21T11:29:27;4.05;;;3.20;;
70138;SDS011;57507;43.056;0.150;2022-07-21T11:31:53;3.65;;;3.33;;
70138;SDS011;57507;43.056;0.150;2022-07-21T11:34:19;3.17;;;2.88;;
70138;SDS011;57507;43.056;0.150;2022-07-21T11:36:45;4.88;;;3.60;;
70138;SDS011;57507;43.056;0.150;2022-07-21T11:39:12;4.47;;;3.40;;
70138;SDS011;57507;43.056;0.150;2022-07-21T11:41:39;4.18;;;3.00;;
70138;SDS011;57507;43.056;0.150;2022-07-21T11:44:07;5.05;;;3.20;;
70138;SDS011;57507;43.056;0.150;2022-07-21T11:49:11;4.32;;;3.15;;
70138;SDS011;57507;43.056;0.150;2022-07-21T11:51:37;5.68;;;3.80;;
70138;SDS011;57507;43.056;0.150;2022-07-21T11:54:03;7.32;;;3.33;;
70138;SDS011;57507;43.056;0.150;2022-07-21T11:56:35;4.45;;;3.33;;
70138;SDS011;57507;43.056;0.150;2022-07-21T12:01:27;4.78;;;2.97;;
70138;SDS011;57507;43.056;0.150;2022-07-21T12:03:53;3.97;;;2.92;;
70138;SDS011;57507;43.056;0.150;2022-07-21T12:06:19;4.78;;;3.53;;
70138;SDS011;57507;43.056;0.150;2022-07-21T12:08:45;3.45;;;3.00;;
70138;SDS011;57507;43.056;0.150;2022-07-21T12:11:11;4.32;;;3.40;;
70138;SDS011;57507;43.056;0.150;2022-07-21T12:13:57;4.80;;;3.10;;
70138;SDS011;57507;43.056;0.150;2022-07-21T12:16:24;4.05;;;3.08;;
70138;SDS011;57507;43.056;0.150;2022-07-21T12:19:09;5.55;;;3.15;;
70138;SDS011;57507;43.056;0.150;2022-07-21T12:21:45;3.45;;;3.15;;
70138;SDS011;57507;43.056;0.150;2022-07-21T12:24:11;4.03;;;3.08;;
70138;SDS011;57507;43.056;0.150;2022-07-21T12:26:38;4.13;;;2.90;;
70138;SDS011;57507;43.056;0.150;2022-07-21T12:29:04;4.10;;;2.88;;
70138;SDS011;57507;43.056;0.150;2022-07-21T12:31:31;3.88;;;2.80;;
70138;SDS011;57507;43.056;0.150;2022-07-21T12:33:58;5.28;;;2.90;;
70138;SDS011;57507;43.056;0.150;2022-07-21T12:36:35;2.92;;;2.55;;
70138;SDS011;57507;43.056;0.150;2022-07-21T12:39:23;4.72;;;2.90;;
70138;SDS011;57507;43.056;0.150;2022-07-21T12:42:10;3.78;;;2.80;;
70138;SDS011;57507;43.056;0.150;2022-07-21T12:44:52;3.38;;;2.80;;
70138;SDS011;57507;43.056;0.150;2022-07-21T12:47:19;3.55;;;3.00;;
70138;SDS011;57507;43.056;0.150;2022-07-21T12:52:24;3.83;;;2.55;;
70138;SDS011;57507;43.056;0.150;2022-07-21T12:54:50;2.95;;;2.55;;
70138;SDS011;57507;43.056;0.150;2022-07-21T12:57:16;2.75;;;2.42;;
70138;SDS011;57507;43.056;0.150;2022-07-21T12:59:42;3.35;;;2.88;;
70138;SDS011;57507;43.056;0.150;2022-07-21T13:02:08;4.75;;;2.65;;
70138;SDS011;57507;43.056;0.150;2022-07-21T13:04:34;3.50;;;2.97;;
70138;SDS011;57507;43.056;0.150;2022-07-21T13:07:01;3.90;;;2.70;;
70138;SDS011;57507;43.056;0.150;2022-07-21T13:09:27;3.95;;;2.75;;
70138;SDS011;57507;43.056;0.150;2022-07-21T13:11:53;3.92;;;2.90;;
70138;SDS011;57507;43.056;0.150;2022-07-21T13:14:19;3.17;;;2.45;;
70138;SDS011;57507;43.056;0.150;2022-07-21T13:16:45;3.53;;;2.45;;
70138;SDS011;57507;43.056;0.150;2022-07-21T13:19:11;2.92;;;2.53;;
70138;SDS011;57507;43.056;0.150;2022-07-21T13:21:37;2.22;;;2.03;;
70138;SDS011;57507;43.056;0.150;2022-07-21T13:24:03;3.78;;;2.38;;
70138;SDS011;57507;43.056;0.150;2022-07-21T13:26:29;3.72;;;2.35;;
70138;SDS011;57507;43.056;0.150;2022-07-21T13:28:55;3.30;;;2.40;;
70138;SDS011;57507;43.056;0.150;2022-07-21T13:31:21;4.53;;;2.20;;
70138;SDS011;57507;43.056;0.150;2022-07-21T13:33:47;4.90;;;2.70;;
70138;SDS011;57507;43.056;0.150;2022-07-21T13:36:14;3.72;;;2.58;;
70138;SDS011;57507;43.056;0.150;2022-07-21T13:38:40;3.22;;;2.53;;
70138;SDS011;57507;43.056;0.150;2022-07-21T13:41:06;3.70;;;2.80;;
70138;SDS011;57507;43.056;0.150;2022-07-21T13:43:32;4.07;;;2.45;;
70138;SDS011;57507;43.056;0.150;2022-07-21T13:45:58;4.90;;;2.65;;
70138;SDS011;57507;43.056;0.150;2022-07-21T13:48:24;5.35;;;2.65;;
70138;SDS011;57507;43.056;0.150;2022-07-21T13:50:50;3.20;;;2.60;;
70138;SDS011;57507;43.056;0.150;2022-07-21T13:53:16;6.13;;;2.72;;
70138;SDS011;57507;43.056;0.150;2022-07-21T13:55:42;4.47;;;2.60;;
70138;SDS011;57507;43.056;0.150;2022-07-21T13:58:09;4.55;;;2.70;;
70138;SDS011;57507;43.056;0.150;2022-07-21T14:00:35;2.97;;;2.33;;
70138;SDS011;57507;43.056;0.150;2022-07-21T14:03:01;3.38;;;2.42;;
70138;SDS011;57507;43.056;0.150;2022-07-21T14:05:27;3.92;;;2.15;;
70138;SDS011;57507;43.056;0.150;2022-07-21T14:07:53;3.53;;;2.47;;
70138;SDS011;57507;43.056;0.150;2022-07-21T14:10:19;3.38;;;2.60;;
70138;SDS011;57507;43.056;0.150;2022-07-21T14:12:45;7.65;;;2.88;;
70138;SDS011;57507;43.056;0.150;2022-07-21T14:15:11;3.92;;;2.70;;
70138;SDS011;57507;43.056;0.150;2022-07-21T14:17:37;4.13;;;2.47;;
70138;SDS011;57507;43.056;0.150;2022-07-21T14:20:04;3.42;;;2.63;;
70138;SDS011;57507;43.056;0.150;2022-07-21T14:22:30;4.07;;;2.70;;
70138;SDS011;57507;43.056;0.150;2022-07-21T14:24:56;3.30;;;2.60;;
70138;SDS011;57507;43.056;0.150;2022-07-21T14:27:40;3.17;;;2.30;;
70138;SDS011;57507;43.056;0.150;2022-07-21T14:30:06;3.10;;;2.28;;
70138;SDS011;57507;43.056;0.150;2022-07-21T14:32:33;3.38;;;2.67;;
70138;SDS011;57507;43.056;0.150;2022-07-21T14:34:59;3.85;;;2.70;;
70138;SDS011;57507;43.056;0.150;2022-07-21T14:37:25;2.70;;;2.38;;
70138;SDS011;57507;43.056;0.150;2022-07-21T14:39:51;5.72;;;3.00;;
70138;SDS011;57507;43.056;0.150;2022-07-21T14:42:17;2.83;;;2.35;;
70138;SDS011;57507;43.056;0.150;2022-07-21T14:44:43;4.43;;;2.67;;
70138;SDS011;57507;43.056;0.150;2022-07-21T14:47:10;3.50;;;2.70;;
70138;SDS011;57507;43.056;0.150;2022-07-21T14:49:37;3.13;;;2.60;;
70138;SDS011;57507;43.056;0.150;2022-07-21T14:52:03;3.20;;;2.50;;
70138;SDS011;57507;43.056;0.150;2022-07-21T14:54:30;3.63;;;2.70;;
70138;SDS011;57507;43.056;0.150;2022-07-21T14:56:56;3.10;;;2.50;;
70138;SDS011;57507;43.056;0.150;2022-07-21T14:59:22;3.85;;;2.83;;
70138;SDS011;57507;43.056;0.150;2022-07-21T15:01:48;4.60;;;2.75;;
70138;SDS011;57507;43.056;0.150;2022-07-21T15:04:14;4.07;;;2.88;;
70138;SDS011;57507;43.056;0.150;2022-07-21T15:06:40;3.47;;;2.75;;
70138;SDS011;57507;43.056;0.150;2022-07-21T15:09:08;3.88;;;2.80;;
70138;SDS011;57507;43.056;0.150;2022-07-21T15:11:34;5.97;;;2.85;;
70138;SDS011;57507;43.056;0.150;2022-07-21T15:14:00;3.25;;;2.72;;
70138;SDS011;57507;43.056;0.150;2022-07-21T15:16:28;5.55;;;2.80;;
70138;SDS011;57507;43.056;0.150;2022-07-21T15:18:54;3.38;;;2.80;;
70138;SDS011;57507;43.056;0.150;2022-07-21T15:21:20;3.80;;;2.58;;
70138;SDS011;57507;43.056;0.150;2022-07-21T15:23:46;3.28;;;2.47;;
70138;SDS011;57507;43.056;0.150;2022-07-21T15:26:12;4.93;;;2.95;;
70138;SDS011;57507;43.056;0.150;2022-07-21T15:28:38;4.95;;;2.75;;
70138;SDS011;57507;43.056;0.150;2022-07-21T15:31:04;4.32;;;2.70;;
70138;SDS011;57507;43.056;0.150;2022-07-21T15:33:30;4.43;;;2.67;;
70138;SDS011;57507;43.056;0.150;2022-07-21T15:35:56;3.35;;;2.72;;